KESC/ESC METAR and TAF weather

Enter ICAO airport designator
Station Type Date Time Source
KESC METAR 2020/07/08 01:56 UTC NOAA

KESC 080156Z AUTO 19003KT 10SM CLR 24/21 A2992 RMK AO2 SLP132 T02390211


Station Type Date Time Source
KESC Decoded METAR 2020/07/08 01:56 UTC NOAA

Escanaba, MI, United States (KESC) 45-45N 087-02W 187M
Jul 07, 2020 - 09:56 PM EDT / 2020.07.08 0156 UTC
Wind: from the S (190 degrees) at 3 MPH (3 KT):0
Visibility: 10 mile(s):0
Sky conditions: clear
Temperature: 75.0 F (23.9 C)
Dew Point: 70.0 F (21.1 C)
Relative Humidity: 84%
Pressure (altimeter): 29.92 in. Hg (1013 hPa)
ob: KESC 080156Z AUTO 19003KT 10SM CLR 24/21 A2992 RMK AO2 SLP132 T02390211
cycle: 2

Station Type Date Time Source
KESC TAF UTC NOAA

Error!

Example: see airport list